Beniganim, Spain
Current Conditions -  °F | °C
As of 6:30 AM on Monday 20 Oct 2014 (Local Time) from LEVC Reporting Station
Clear Clear  
Wind Chill: 57°   Ceiling: Unl
Heat Index: 57°   Visibility: 6mi
Dew Point: 55°   Wind: 2mph
Humidity: 94%   Direction: NA
Pressure: 30.21"   Gusts: NA
Location:  38.95°N, 0.43°W
Report Text: LEVC 200430Z VRB02KT CAVOK 14/13 Q1023 NOSIG
Loading
Personal Weather Stations






























Interactive Weather Map
Tropical Storm Tracking
New forecast layout! Learn more

10-Day Weather Forecast

Advertisements
Track Severe Weather on mobile